Bc Singapore — V2ET7 — position and weather

sailwx.info

Track history (hours):
 
Tides and Currents Weather Stations Pressure Air Temp Water Temp Dewpoint Dewpoint Depression Visibility Wind Speed Wind Dir Waves Ship Positions

Bc Singapore

Last reported at 2017-Oct-06 19:23 UTC. Time now 2017-Oct-17 15:41 UTC.
Position N 16°14' W 062°49'.
Warning: this ship's position is 10 days out of date.

Length 148 m; draft 7.2 m.

Type: Ship (hazmat cat A). MMSI: 305548000.

Date/timePositionNaut miles runAvg speedWind from/ knotsBaromVisibWave heightAir tempDewpointWater temp
2017-Oct-06 19:23N 16°14' W 062°49'513.2
2017-Oct-06 18:59N 16°17' W 062°44'613.2
2017-Oct-06 18:30N 16°20' W 062°38'713.0
2017-Oct-06 18:00N 16°23' W 062°32'713.3
2017-Oct-06 17:30N 16°26' W 062°26'713.4
2017-Oct-06 17:00N 16°29' W 062°20'611.6
2017-Oct-06 16:30N 16°32' W 062°15'4 8.3
2017-Oct-06 16:00N 16°34' W 062°11'3 5.1
2017-Oct-06 15:30N 16°36' W 062°09'714.5
2017-Oct-06 15:00N 16°40' W 062°03'714.2
2017-Oct-06 14:30N 16°44' W 061°57'713.8
2017-Oct-06 14:00N 16°48' W 061°51'714.1
2017-Oct-06 13:30N 16°52' W 061°45'713.9
2017-Oct-06 13:00N 16°56' W 061°39'713.5
2017-Oct-06 12:30N 16°60' W 061°33'713.6
2017-Oct-06 12:00N 17°04' W 061°27'713.8
2017-Oct-06 11:31N 17°07' W 061°21'713.9
2017-Oct-06 11:01N 17°11' W 061°15'714.0
2017-Oct-06 10:31N 17°15' W 061°09'714.0
2017-Oct-06 10:01N 17°20' W 061°03'  
2017-Sep-30 01:52N 37°20' W 028°45'514.0
2017-Sep-30 01:30N 37°23' W 028°40'713.9
2017-Sep-30 01:00N 37°27' W 028°33'814.3
2017-Sep-30 00:26N 37°31' W 028°24'613.9
2017-Sep-30 00:00N 37°34' W 028°18'714.0
2017-Sep-29 23:31N 37°38' W 028°11'713.7
2017-Sep-29 23:00N 37°42' W 028°04'713.6
2017-Sep-29 22:31N 37°46' W 027°57'713.7
2017-Sep-29 22:00N 37°50' W 027°50'713.7
2017-Sep-29 21:30N 37°54' W 027°43'713.6
2017-Sep-29 21:00N 37°58' W 027°36'713.6
2017-Sep-29 20:30N 38°03' W 027°29'713.3
2017-Sep-29 20:00N 38°07' W 027°22'713.8
2017-Sep-29 19:30N 38°11' W 027°15'713.4
2017-Sep-29 19:00N 38°15' W 027°08'713.4
2017-Sep-29 18:30N 38°19' W 027°02'713.4
2017-Sep-29 18:00N 38°23' W 026°55'713.5
2017-Sep-29 17:30N 38°27' W 026°48'713.6
2017-Sep-29 17:00N 38°30' W 026°40'713.6
2017-Sep-29 16:30N 38°33' W 026°33'713.3
2017-Sep-29 16:00N 38°37' W 026°26'713.4
2017-Sep-29 15:30N 38°41' W 026°19'713.6
2017-Sep-29 15:00N 38°45' W 026°12'813.6
2017-Sep-29 14:26N 38°49' W 026°04'613.4
2017-Sep-29 14:00N 38°53' W 025°58'  
Track history (hours):
 
Tides and Currents Weather Stations Pressure Air Temp Water Temp Dewpoint Dewpoint Depression Visibility Wind Speed Wind Dir Waves Ship Positions

Bc Singapore

Last reported at 2017-Oct-06 19:23 UTC. Time now 2017-Oct-17 15:41 UTC.
Position N 16°14' W 062°49'.
Warning: this ship's position is 10 days out of date.

Length 148 m; draft 7.2 m.

Type: Ship (hazmat cat A). MMSI: 305548000.

Date/timePositionNaut miles runAvg speedWind from/ knotsBaromVisibWave heightAir tempDewpointWater temp
2017-Oct-06 19:23N 16°14' W 062°49'513.2
2017-Oct-06 18:59N 16°17' W 062°44'613.2
2017-Oct-06 18:30N 16°20' W 062°38'713.0
2017-Oct-06 18:00N 16°23' W 062°32'713.3
2017-Oct-06 17:30N 16°26' W 062°26'713.4
2017-Oct-06 17:00N 16°29' W 062°20'611.6
2017-Oct-06 16:30N 16°32' W 062°15'4 8.3
2017-Oct-06 16:00N 16°34' W 062°11'3 5.1
2017-Oct-06 15:30N 16°36' W 062°09'714.5
2017-Oct-06 15:00N 16°40' W 062°03'714.2
2017-Oct-06 14:30N 16°44' W 061°57'713.8
2017-Oct-06 14:00N 16°48' W 061°51'714.1
2017-Oct-06 13:30N 16°52' W 061°45'713.9
2017-Oct-06 13:00N 16°56' W 061°39'713.5
2017-Oct-06 12:30N 16°60' W 061°33'713.6
2017-Oct-06 12:00N 17°04' W 061°27'713.8
2017-Oct-06 11:31N 17°07' W 061°21'713.9
2017-Oct-06 11:01N 17°11' W 061°15'714.0
2017-Oct-06 10:31N 17°15' W 061°09'714.0
2017-Oct-06 10:01N 17°20' W 061°03'  
2017-Sep-30 01:52N 37°20' W 028°45'514.0
2017-Sep-30 01:30N 37°23' W 028°40'713.9
2017-Sep-30 01:00N 37°27' W 028°33'814.3
2017-Sep-30 00:26N 37°31' W 028°24'613.9
2017-Sep-30 00:00N 37°34' W 028°18'714.0
2017-Sep-29 23:31N 37°38' W 028°11'713.7
2017-Sep-29 23:00N 37°42' W 028°04'713.6
2017-Sep-29 22:31N 37°46' W 027°57'713.7
2017-Sep-29 22:00N 37°50' W 027°50'713.7
2017-Sep-29 21:30N 37°54' W 027°43'713.6
2017-Sep-29 21:00N 37°58' W 027°36'713.6
2017-Sep-29 20:30N 38°03' W 027°29'713.3
2017-Sep-29 20:00N 38°07' W 027°22'713.8
2017-Sep-29 19:30N 38°11' W 027°15'713.4
2017-Sep-29 19:00N 38°15' W 027°08'713.4
2017-Sep-29 18:30N 38°19' W 027°02'713.4
2017-Sep-29 18:00N 38°23' W 026°55'713.5
2017-Sep-29 17:30N 38°27' W 026°48'713.6
2017-Sep-29 17:00N 38°30' W 026°40'713.6
2017-Sep-29 16:30N 38°33' W 026°33'713.3
2017-Sep-29 16:00N 38°37' W 026°26'713.4
2017-Sep-29 15:30N 38°41' W 026°19'713.6
2017-Sep-29 15:00N 38°45' W 026°12'813.6
2017-Sep-29 14:26N 38°49' W 026°04'613.4
2017-Sep-29 14:00N 38°53' W 025°58'  

Dump ship's entire track history